sensor_id;sensor_type;location;lat;lon;timestamp;pressure;altitude;pressure_sealevel;temperature;humidity
70323;BME280;57735;56.264;43.898;2023-09-12T00:02:13;101045.88;;;8.54;99.57
70323;BME280;57735;56.264;43.898;2023-09-12T00:04:44;101046.25;;;8.50;99.63
70323;BME280;57735;56.264;43.898;2023-09-12T00:07:15;101046.38;;;8.48;99.62
70323;BME280;57735;56.264;43.898;2023-09-12T00:09:45;101051.09;;;8.45;99.69
70323;BME280;57735;56.264;43.898;2023-09-12T00:12:21;101049.50;;;8.42;99.93
70323;BME280;57735;56.264;43.898;2023-09-12T00:14:53;101045.16;;;8.41;99.85
70323;BME280;57735;56.264;43.898;2023-09-12T00:17:24;101044.44;;;8.39;99.89
70323;BME280;57735;56.264;43.898;2023-09-12T00:19:57;101059.69;;;8.37;99.96
70323;BME280;57735;56.264;43.898;2023-09-12T00:22:28;101059.94;;;8.34;99.93
70323;BME280;57735;56.264;43.898;2023-09-12T00:24:58;101060.13;;;8.31;100.00
70323;BME280;57735;56.264;43.898;2023-09-12T00:27:29;101063.88;;;8.28;100.00
70323;BME280;57735;56.264;43.898;2023-09-12T00:30:00;101057.00;;;8.26;100.00
70323;BME280;57735;56.264;43.898;2023-09-12T00:32:31;101057.00;;;8.26;100.00
70323;BME280;57735;56.264;43.898;2023-09-12T00:35:01;101051.78;;;8.24;100.00
70323;BME280;57735;56.264;43.898;2023-09-12T00:37:34;101064.09;;;8.25;100.00
70323;BME280;57735;56.264;43.898;2023-09-12T00:40:06;101064.09;;;8.25;100.00
70323;BME280;57735;56.264;43.898;2023-09-12T00:42:37;101064.50;;;8.21;100.00
70323;BME280;57735;56.264;43.898;2023-09-12T00:45:08;101063.03;;;8.17;100.00
70323;BME280;57735;56.264;43.898;2023-09-12T00:47:38;101060.75;;;8.12;100.00
70323;BME280;57735;56.264;43.898;2023-09-12T00:50:10;101060.97;;;8.09;99.96
70323;BME280;57735;56.264;43.898;2023-09-12T00:52:45;101057.59;;;8.07;100.00
70323;BME280;57735;56.264;43.898;2023-09-12T00:55:16;101068.34;;;8.05;100.00
70323;BME280;57735;56.264;43.898;2023-09-12T00:57:47;101062.31;;;8.03;100.00
70323;BME280;57735;56.264;43.898;2023-09-12T01:00:19;101071.25;;;8.02;100.00
70323;BME280;57735;56.264;43.898;2023-09-12T01:02:50;101074.88;;;8.01;100.00
70323;BME280;57735;56.264;43.898;2023-09-12T01:05:23;101075.97;;;7.99;100.00
70323;BME280;57735;56.264;43.898;2023-09-12T01:07:55;101073.41;;;7.97;100.00
70323;BME280;57735;56.264;43.898;2023-09-12T01:10:26;101073.53;;;7.96;100.00
70323;BME280;57735;56.264;43.898;2023-09-12T01:13:04;101078.97;;;7.94;100.00
70323;BME280;57735;56.264;43.898;2023-09-12T01:15:39;101089.56;;;7.94;100.00
70323;BME280;57735;56.264;43.898;2023-09-12T01:18:14;101086.19;;;7.92;100.00
70323;BME280;57735;56.264;43.898;2023-09-12T01:27:18;101087.53;;;7.87;100.00
70323;BME280;57735;56.264;43.898;2023-09-12T01:29:22;101082.34;;;7.85;100.00
70323;BME280;57735;56.264;43.898;2023-09-12T01:31:53;101087.66;;;7.85;100.00
70323;BME280;57735;56.264;43.898;2023-09-12T01:34:27;101098.16;;;7.87;100.00
70323;BME280;57735;56.264;43.898;2023-09-12T01:36:58;101092.00;;;7.86;100.00
70323;BME280;57735;56.264;43.898;2023-09-12T01:39:29;101095.84;;;7.82;100.00
70323;BME280;57735;56.264;43.898;2023-09-12T01:42:01;101099.56;;;7.80;100.00
70323;BME280;57735;56.264;43.898;2023-09-12T01:44:35;101097.16;;;7.77;100.00
70323;BME280;57735;56.264;43.898;2023-09-12T01:47:08;101107.16;;;7.73;100.00
70323;BME280;57735;56.264;43.898;2023-09-12T01:49:41;101103.75;;;7.71;100.00
70323;BME280;57735;56.264;43.898;2023-09-12T01:52:16;101092.34;;;7.70;100.00
70323;BME280;57735;56.264;43.898;2023-09-12T01:54:47;101109.81;;;7.73;100.00
70323;BME280;57735;56.264;43.898;2023-09-12T01:57:20;101108.97;;;7.72;100.00
70323;BME280;57735;56.264;43.898;2023-09-12T01:59:56;101106.41;;;7.71;100.00
70323;BME280;57735;56.264;43.898;2023-09-12T02:02:29;101108.38;;;7.69;100.00
70323;BME280;57735;56.264;43.898;2023-09-12T02:05:13;101110.19;;;7.68;100.00
70323;BME280;57735;56.264;43.898;2023-09-12T02:07:46;101115.50;;;7.68;100.00
70323;BME280;57735;56.264;43.898;2023-09-12T02:10:17;101115.72;;;7.65;100.00
70323;BME280;57735;56.264;43.898;2023-09-12T02:12:51;101114.88;;;7.65;100.00
70323;BME280;57735;56.264;43.898;2023-09-12T02:15:22;101120.19;;;7.65;100.00
70323;BME280;57735;56.264;43.898;2023-09-12T02:17:53;101128.13;;;7.65;100.00
70323;BME280;57735;56.264;43.898;2023-09-12T02:20:25;101133.44;;;7.65;100.00
70323;BME280;57735;56.264;43.898;2023-09-12T02:22:58;101135.25;;;7.64;100.00
70323;BME280;57735;56.264;43.898;2023-09-12T02:25:28;101139.81;;;7.62;100.00
70323;BME280;57735;56.264;43.898;2023-09-12T02:27:59;101145.03;;;7.64;100.00
70323;BME280;57735;56.264;43.898;2023-09-12T02:30:30;101150.31;;;7.64;100.00
70323;BME280;57735;56.264;43.898;2023-09-12T02:33:01;101150.56;;;7.61;100.00
70323;BME280;57735;56.264;43.898;2023-09-12T02:35:31;101156.69;;;7.61;100.00
70323;BME280;57735;56.264;43.898;2023-09-12T02:38:02;101157.66;;;7.60;100.00
70323;BME280;57735;56.264;43.898;2023-09-12T02:40:33;101170.09;;;7.60;100.00
70323;BME280;57735;56.264;43.898;2023-09-12T02:43:04;101162.13;;;7.60;100.00
70323;BME280;57735;56.264;43.898;2023-09-12T02:45:35;101165.00;;;7.57;100.00
70323;BME280;57735;56.264;43.898;2023-09-12T02:48:06;101157.78;;;7.59;100.00
70323;BME280;57735;56.264;43.898;2023-09-12T02:50:37;101162.84;;;7.62;100.00
70323;BME280;57735;56.264;43.898;2023-09-12T02:53:07;101167.22;;;7.63;100.00
70323;BME280;57735;56.264;43.898;2023-09-12T02:55:42;101170.69;;;7.63;100.00
70323;BME280;57735;56.264;43.898;2023-09-12T02:58:12;101172.41;;;7.64;100.00
70323;BME280;57735;56.264;43.898;2023-09-12T03:00:43;101177.72;;;7.64;100.00
70323;BME280;57735;56.264;43.898;2023-09-12T03:03:14;101183.00;;;7.64;100.00
70323;BME280;57735;56.264;43.898;2023-09-12T03:05:45;101189.16;;;7.65;100.00
70323;BME280;57735;56.264;43.898;2023-09-12T03:08:15;101189.06;;;7.66;100.00
70323;BME280;57735;56.264;43.898;2023-09-12T03:10:54;101186.19;;;7.69;100.00
70323;BME280;57735;56.264;43.898;2023-09-12T03:13:25;101186.03;;;7.71;100.00
70323;BME280;57735;56.264;43.898;2023-09-12T03:15:56;101181.22;;;7.76;100.00
70323;BME280;57735;56.264;43.898;2023-09-12T03:18:27;101188.75;;;7.82;100.00
70323;BME280;57735;56.264;43.898;2023-09-12T03:20:58;101195.38;;;7.88;100.00
70323;BME280;57735;56.264;43.898;2023-09-12T03:23:28;101194.06;;;7.93;100.00
70323;BME280;57735;56.264;43.898;2023-09-12T03:26:03;101200.97;;;7.96;100.00
70323;BME280;57735;56.264;43.898;2023-09-12T03:28:34;101197.13;;;8.00;100.00
70323;BME280;57735;56.264;43.898;2023-09-12T03:31:09;101201.81;;;8.07;100.00
70323;BME280;57735;56.264;43.898;2023-09-12T03:33:47;101209.09;;;8.17;100.00
70323;BME280;57735;56.264;43.898;2023-09-12T03:36:20;101205.72;;;8.26;100.00
70323;BME280;57735;56.264;43.898;2023-09-12T03:38:51;101202.28;;;8.36;100.00
70323;BME280;57735;56.264;43.898;2023-09-12T03:41:21;101204.09;;;8.47;100.00
70323;BME280;57735;56.264;43.898;2023-09-12T03:43:56;101201.44;;;8.58;100.00
70323;BME280;57735;56.264;43.898;2023-09-12T03:46:27;101211.38;;;8.67;100.00
70323;BME280;57735;56.264;43.898;2023-09-12T03:48:57;101212.53;;;8.74;100.00
70323;BME280;57735;56.264;43.898;2023-09-12T03:51:28;101216.44;;;8.82;100.00
70323;BME280;57735;56.264;43.898;2023-09-12T03:53:59;101218.97;;;8.83;100.00
70323;BME280;57735;56.264;43.898;2023-09-12T03:56:30;101221.50;;;8.85;100.00
70323;BME280;57735;56.264;43.898;2023-09-12T03:59:01;101228.13;;;8.90;100.00
70323;BME280;57735;56.264;43.898;2023-09-12T04:01:33;101233.81;;;8.97;99.75
70323;BME280;57735;56.264;43.898;2023-09-12T04:04:03;101222.91;;;9.11;99.73
70323;BME280;57735;56.264;43.898;2023-09-12T04:06:34;101227.84;;;9.27;100.00
70323;BME280;57735;56.264;43.898;2023-09-12T04:09:05;101228.16;;;9.44;100.00
70323;BME280;57735;56.264;43.898;2023-09-12T04:11:37;101233.06;;;9.60;100.00
70323;BME280;57735;56.264;43.898;2023-09-12T04:14:07;101240.75;;;9.74;100.00
70323;BME280;57735;56.264;43.898;2023-09-12T04:16:38;101239.47;;;9.90;100.00
70323;BME280;57735;56.264;43.898;2023-09-12T04:19:09;101243.53;;;10.05;99.94
70323;BME280;57735;56.264;43.898;2023-09-12T04:21:40;101232.69;;;10.18;99.90
70323;BME280;57735;56.264;43.898;2023-09-12T04:24:11;101237.97;;;10.29;99.53
70323;BME280;57735;56.264;43.898;2023-09-12T04:26:42;101244.91;;;10.41;99.29
70323;BME280;57735;56.264;43.898;2023-09-12T04:29:14;101242.91;;;10.54;99.08
70323;BME280;57735;56.264;43.898;2023-09-12T04:31:45;101231.03;;;10.68;98.92
70323;BME280;57735;56.264;43.898;2023-09-12T04:34:15;101234.44;;;10.79;98.49
70323;BME280;57735;56.264;43.898;2023-09-12T04:36:47;101236.63;;;10.95;97.82
70323;BME280;57735;56.264;43.898;2023-09-12T04:39:17;101230.91;;;11.09;97.23
70323;BME280;57735;56.264;43.898;2023-09-12T04:41:48;101230.38;;;11.25;96.80
70323;BME280;57735;56.264;43.898;2023-09-12T04:44:19;101238.81;;;11.40;95.85
70323;BME280;57735;56.264;43.898;2023-09-12T04:46:50;101235.78;;;11.54;95.43
70323;BME280;57735;56.264;43.898;2023-09-12T04:49:21;101243.78;;;11.64;94.20
70323;BME280;57735;56.264;43.898;2023-09-12T04:51:52;101234.53;;;11.68;91.99
70323;BME280;57735;56.264;43.898;2023-09-12T04:54:23;101237.78;;;11.71;92.17
70323;BME280;57735;56.264;43.898;2023-09-12T04:56:54;101238.31;;;11.75;91.66
70323;BME280;57735;56.264;43.898;2023-09-12T04:59:24;101236.66;;;11.83;91.56
70323;BME280;57735;56.264;43.898;2023-09-12T05:01:55;101242.28;;;11.90;91.24
70323;BME280;57735;56.264;43.898;2023-09-12T05:04:26;101248.06;;;11.95;90.73
70323;BME280;57735;56.264;43.898;2023-09-12T05:06:57;101248.63;;;11.99;90.25
70323;BME280;57735;56.264;43.898;2023-09-12T05:09:27;101246.50;;;12.02;89.56
70323;BME280;57735;56.264;43.898;2023-09-12T05:11:58;101248.03;;;12.14;88.87
70323;BME280;57735;56.264;43.898;2023-09-12T05:14:29;101255.06;;;12.15;87.56
70323;BME280;57735;56.264;43.898;2023-09-12T05:17:00;101252.38;;;12.25;87.76
70323;BME280;57735;56.264;43.898;2023-09-12T05:19:32;101251.25;;;12.37;86.91
70323;BME280;57735;56.264;43.898;2023-09-12T05:22:03;101250.66;;;12.53;86.25
70323;BME280;57735;56.264;43.898;2023-09-12T05:24:34;101243.78;;;12.78;86.31
70323;BME280;57735;56.264;43.898;2023-09-12T05:27:04;101248.81;;;12.90;86.13
70323;BME280;57735;56.264;43.898;2023-09-12T05:29:36;101263.22;;;12.89;84.98
70323;BME280;57735;56.264;43.898;2023-09-12T05:32:07;101261.81;;;12.85;85.25
70323;BME280;57735;56.264;43.898;2023-09-12T05:34:37;101254.91;;;12.83;85.09
70323;BME280;57735;56.264;43.898;2023-09-12T05:37:08;101254.50;;;12.78;84.63
70323;BME280;57735;56.264;43.898;2023-09-12T05:39:39;101258.44;;;12.74;85.10
70323;BME280;57735;56.264;43.898;2023-09-12T05:42:12;101257.91;;;12.70;85.18
70323;BME280;57735;56.264;43.898;2023-09-12T05:44:44;101257.50;;;12.65;84.82
70323;BME280;57735;56.264;43.898;2023-09-12T05:47:17;101258.91;;;12.69;85.18
70323;BME280;57735;56.264;43.898;2023-09-12T05:49:50;101262.66;;;12.76;85.13
70323;BME280;57735;56.264;43.898;2023-09-12T05:52:21;101268.84;;;12.86;85.16
70323;BME280;57735;56.264;43.898;2023-09-12T05:54:52;101265.13;;;12.97;84.64
70323;BME280;57735;56.264;43.898;2023-09-12T05:57:22;101270.84;;;13.12;84.33
70323;BME280;57735;56.264;43.898;2023-09-12T05:59:54;101272.34;;;13.24;83.69
70323;BME280;57735;56.264;43.898;2023-09-12T06:02:25;101268.94;;;13.32;83.27
70323;BME280;57735;56.264;43.898;2023-09-12T06:04:58;101269.19;;;13.38;83.56
70323;BME280;57735;56.264;43.898;2023-09-12T06:07:29;101267.22;;;13.40;82.94
70323;BME280;57735;56.264;43.898;2023-09-12T06:10:04;101271.03;;;13.38;82.56
70323;BME280;57735;56.264;43.898;2023-09-12T06:12:36;101276.81;;;13.33;82.82
70323;BME280;57735;56.264;43.898;2023-09-12T06:15:08;101273.44;;;13.31;82.84
70323;BME280;57735;56.264;43.898;2023-09-12T06:17:39;101276.97;;;13.32;82.56
70323;BME280;57735;56.264;43.898;2023-09-12T06:20:10;101288.13;;;13.27;82.27
70323;BME280;57735;56.264;43.898;2023-09-12T06:22:41;101287.13;;;13.28;82.53
70323;BME280;57735;56.264;43.898;2023-09-12T06:25:13;101278.09;;;13.29;82.66
70323;BME280;57735;56.264;43.898;2023-09-12T06:27:44;101282.19;;;13.33;82.70
70323;BME280;57735;56.264;43.898;2023-09-12T06:30:15;101296.50;;;13.42;82.53
70323;BME280;57735;56.264;43.898;2023-09-12T06:32:48;101285.03;;;13.49;82.28
70323;BME280;57735;56.264;43.898;2023-09-12T06:35:19;101287.13;;;13.55;82.07
70323;BME280;57735;56.264;43.898;2023-09-12T06:37:50;101289.88;;;13.63;81.87
70323;BME280;57735;56.264;43.898;2023-09-12T06:40:39;101295.50;;;13.70;81.93
70323;BME280;57735;56.264;43.898;2023-09-12T06:43:13;101292.53;;;13.73;81.54
70323;BME280;57735;56.264;43.898;2023-09-12T06:45:46;101286.81;;;13.76;81.46
70323;BME280;57735;56.264;43.898;2023-09-12T06:48:16;101293.03;;;13.77;81.33
70323;BME280;57735;56.264;43.898;2023-09-12T06:50:47;101289.06;;;13.81;81.46
70323;BME280;57735;56.264;43.898;2023-09-12T06:53:18;101291.16;;;13.87;81.22
70323;BME280;57735;56.264;43.898;2023-09-12T06:55:49;101297.97;;;13.99;81.04
70323;BME280;57735;56.264;43.898;2023-09-12T06:58:20;101296.88;;;14.10;80.88
70323;BME280;57735;56.264;43.898;2023-09-12T07:00:50;101297.50;;;14.21;80.57
70323;BME280;57735;56.264;43.898;2023-09-12T07:03:24;101301.22;;;14.28;78.77
70323;BME280;57735;56.264;43.898;2023-09-12T07:06:28;101291.56;;;14.36;78.93
70323;BME280;57735;56.264;43.898;2023-09-12T07:09:03;101294.56;;;14.50;78.38
70323;BME280;57735;56.264;43.898;2023-09-12T07:11:35;101299.97;;;14.58;77.73
70323;BME280;57735;56.264;43.898;2023-09-12T07:14:06;101307.09;;;14.68;77.87
70323;BME280;57735;56.264;43.898;2023-09-12T07:16:37;101310.00;;;14.74;77.25
70323;BME280;57735;56.264;43.898;2023-09-12T07:19:09;101302.28;;;14.79;77.23
70323;BME280;57735;56.264;43.898;2023-09-12T07:21:41;101310.25;;;14.89;76.72
70323;BME280;57735;56.264;43.898;2023-09-12T07:24:15;101306.13;;;15.02;76.71
70323;BME280;57735;56.264;43.898;2023-09-12T07:26:47;101300.84;;;15.19;76.37
70323;BME280;57735;56.264;43.898;2023-09-12T07:29:19;101301.38;;;15.30;75.00
70323;BME280;57735;56.264;43.898;2023-09-12T07:31:53;101309.03;;;15.51;74.38
70323;BME280;57735;56.264;43.898;2023-09-12T07:34:24;101303.38;;;15.62;73.20
70323;BME280;57735;56.264;43.898;2023-09-12T07:36:58;101300.88;;;15.69;73.01
70323;BME280;57735;56.264;43.898;2023-09-12T07:39:29;101304.78;;;15.75;73.01
70323;BME280;57735;56.264;43.898;2023-09-12T07:42:00;101307.47;;;15.75;71.77
70323;BME280;57735;56.264;43.898;2023-09-12T07:44:33;101305.78;;;15.74;71.06
70323;BME280;57735;56.264;43.898;2023-09-12T07:47:04;101311.69;;;16.01;71.21
70323;BME280;57735;56.264;43.898;2023-09-12T07:49:35;101310.53;;;16.12;70.86
70323;BME280;57735;56.264;43.898;2023-09-12T07:52:06;101304.84;;;16.23;70.66
70323;BME280;57735;56.264;43.898;2023-09-12T07:54:40;101301.28;;;16.47;69.48
70323;BME280;57735;56.264;43.898;2023-09-12T07:57:11;101310.22;;;16.64;68.12
70323;BME280;57735;56.264;43.898;2023-09-12T07:59:41;101300.75;;;16.84;66.42
70323;BME280;57735;56.264;43.898;2023-09-12T08:02:12;101304.41;;;17.07;65.73
70323;BME280;57735;56.264;43.898;2023-09-12T08:04:43;101299.63;;;17.26;65.93
70323;BME280;57735;56.264;43.898;2023-09-12T08:07:14;101297.72;;;17.34;65.10
70323;BME280;57735;56.264;43.898;2023-09-12T08:12:27;101304.47;;;17.38;62.72
70323;BME280;57735;56.264;43.898;2023-09-12T08:14:58;101302.94;;;17.36;63.11
70323;BME280;57735;56.264;43.898;2023-09-12T08:17:30;101310.88;;;17.29;63.03
70323;BME280;57735;56.264;43.898;2023-09-12T08:20:01;101309.69;;;17.32;61.83
70323;BME280;57735;56.264;43.898;2023-09-12T08:22:38;101306.59;;;17.43;62.60
70323;BME280;57735;56.264;43.898;2023-09-12T08:25:09;101305.41;;;17.45;61.78
70323;BME280;57735;56.264;43.898;2023-09-12T08:27:40;101306.97;;;17.40;61.25
70323;BME280;57735;56.264;43.898;2023-09-12T08:30:13;101312.00;;;17.43;61.26
70323;BME280;57735;56.264;43.898;2023-09-12T08:32:44;101308.28;;;17.44;61.60
70323;BME280;57735;56.264;43.898;2023-09-12T08:35:15;101304.56;;;17.45;60.65
70323;BME280;57735;56.264;43.898;2023-09-12T08:37:49;101301.19;;;17.51;60.51
70323;BME280;57735;56.264;43.898;2023-09-12T08:40:22;101303.22;;;17.49;59.81
70323;BME280;57735;56.264;43.898;2023-09-12T08:42:54;101313.56;;;17.37;58.67
70323;BME280;57735;56.264;43.898;2023-09-12T08:45:25;101301.25;;;17.35;58.95
70323;BME280;57735;56.264;43.898;2023-09-12T08:47:59;101296.72;;;17.35;59.09
70323;BME280;57735;56.264;43.898;2023-09-12T08:50:34;101301.59;;;17.40;59.45
70323;BME280;57735;56.264;43.898;2023-09-12T08:53:05;101300.19;;;17.44;59.75
70323;BME280;57735;56.264;43.898;2023-09-12T08:55:36;101305.41;;;17.45;58.19
70323;BME280;57735;56.264;43.898;2023-09-12T08:58:07;101301.53;;;17.48;59.16
70323;BME280;57735;56.264;43.898;2023-09-12T09:00:38;101295.63;;;17.53;59.17
70323;BME280;57735;56.264;43.898;2023-09-12T09:03:10;101294.44;;;17.55;57.64
70323;BME280;57735;56.264;43.898;2023-09-12T09:05:42;101296.47;;;17.53;57.12
70323;BME280;57735;56.264;43.898;2023-09-12T09:08:14;101300.50;;;17.57;58.15
70323;BME280;57735;56.264;43.898;2023-09-12T09:11:04;101293.41;;;17.56;57.11
70323;BME280;57735;56.264;43.898;2023-09-12T09:13:37;101287.19;;;17.56;56.53
70323;BME280;57735;56.264;43.898;2023-09-12T09:16:18;101284.84;;;17.53;56.71
70323;BME280;57735;56.264;43.898;2023-09-12T09:19:02;101291.69;;;17.63;56.56
70323;BME280;57735;56.264;43.898;2023-09-12T09:21:34;101285.75;;;17.76;56.86
70323;BME280;57735;56.264;43.898;2023-09-12T09:24:07;101285.88;;;17.83;55.10
70323;BME280;57735;56.264;43.898;2023-09-12T09:29:18;101287.72;;;17.82;53.29
70323;BME280;57735;56.264;43.898;2023-09-12T09:31:51;101284.19;;;17.82;53.44
70323;BME280;57735;56.264;43.898;2023-09-12T09:34:22;101284.66;;;17.85;53.99
70323;BME280;57735;56.264;43.898;2023-09-12T09:36:56;101291.75;;;17.86;53.20
70323;BME280;57735;56.264;43.898;2023-09-12T09:39:28;101288.22;;;17.86;53.19
70323;BME280;57735;56.264;43.898;2023-09-12T09:42:10;101286.53;;;17.85;52.96
70323;BME280;57735;56.264;43.898;2023-09-12T09:44:44;101295.63;;;17.84;53.29
70323;BME280;57735;56.264;43.898;2023-09-12T09:47:17;101291.25;;;17.83;53.30
70323;BME280;57735;56.264;43.898;2023-09-12T09:49:51;101287.22;;;17.78;52.03
70323;BME280;57735;56.264;43.898;2023-09-12T09:52:25;101295.72;;;17.75;52.55
70323;BME280;57735;56.264;43.898;2023-09-12T09:54:59;101283.41;;;17.73;52.55
70323;BME280;57735;56.264;43.898;2023-09-12T09:57:36;101298.09;;;17.70;52.64
70323;BME280;57735;56.264;43.898;2023-09-12T10:00:09;101284.59;;;17.70;52.79
70323;BME280;57735;56.264;43.898;2023-09-12T10:02:49;101284.25;;;17.73;53.57
70323;BME280;57735;56.264;43.898;2023-09-12T10:05:21;101285.88;;;17.83;53.42
70323;BME280;57735;56.264;43.898;2023-09-12T10:07:54;101290.31;;;17.98;54.29
70323;BME280;57735;56.264;43.898;2023-09-12T10:10:27;101289.69;;;18.11;54.02
70323;BME280;57735;56.264;43.898;2023-09-12T10:12:59;101291.50;;;18.19;53.02
70323;BME280;57735;56.264;43.898;2023-09-12T10:15:34;101292.00;;;18.22;52.05
70323;BME280;57735;56.264;43.898;2023-09-12T10:18:14;101292.72;;;18.16;51.29
70323;BME280;57735;56.264;43.898;2023-09-12T10:20:55;101287.66;;;18.13;51.41
70323;BME280;57735;56.264;43.898;2023-09-12T10:23:34;101285.81;;;18.13;51.31
70323;BME280;57735;56.264;43.898;2023-09-12T10:26:13;101280.34;;;18.22;51.02
70323;BME280;57735;56.264;43.898;2023-09-12T10:28:46;101284.78;;;18.37;51.31
70323;BME280;57735;56.264;43.898;2023-09-12T10:31:17;101282.59;;;18.56;50.95
70323;BME280;57735;56.264;43.898;2023-09-12T10:33:49;101284.13;;;18.73;50.74
70323;BME280;57735;56.264;43.898;2023-09-12T10:36:20;101286.25;;;18.77;51.36
70323;BME280;57735;56.264;43.898;2023-09-12T10:38:57;101291.94;;;18.82;50.04
70323;BME280;57735;56.264;43.898;2023-09-12T10:41:30;101285.28;;;18.93;49.99
70323;BME280;57735;56.264;43.898;2023-09-12T10:44:02;101289.44;;;18.96;49.71
70323;BME280;57735;56.264;43.898;2023-09-12T10:46:44;101292.44;;;19.01;50.63
70323;BME280;57735;56.264;43.898;2023-09-12T10:49:16;101286.84;;;18.88;49.63
70323;BME280;57735;56.264;43.898;2023-09-12T10:51:47;101281.44;;;18.88;49.65
70323;BME280;57735;56.264;43.898;2023-09-12T10:54:36;101282.94;;;18.75;50.02
70323;BME280;57735;56.264;43.898;2023-09-12T10:57:13;101284.13;;;18.88;50.06
70323;BME280;57735;56.264;43.898;2023-09-12T11:02:40;101284.88;;;18.81;49.97
70323;BME280;57735;56.264;43.898;2023-09-12T11:05:36;101279.22;;;18.91;50.02
70323;BME280;57735;56.264;43.898;2023-09-12T11:08:07;101281.31;;;18.96;50.22
70323;BME280;57735;56.264;43.898;2023-09-12T11:10:39;101285.63;;;18.75;50.03
70323;BME280;57735;56.264;43.898;2023-09-12T11:13:17;101284.03;;;18.66;51.56
70323;BME280;57735;56.264;43.898;2023-09-12T11:16:13;101286.38;;;18.46;50.50
70323;BME280;57735;56.264;43.898;2023-09-12T11:21:52;101289.69;;;18.11;50.35
70323;BME280;57735;56.264;43.898;2023-09-12T11:24:28;101281.31;;;18.06;51.00
70323;BME280;57735;56.264;43.898;2023-09-12T11:27:16;101278.28;;;18.09;51.93
70323;BME280;57735;56.264;43.898;2023-09-12T11:29:47;101292.41;;;18.11;52.11
70323;BME280;57735;56.264;43.898;2023-09-12T11:32:32;101274.16;;;18.13;52.88
70323;BME280;57735;56.264;43.898;2023-09-12T11:35:07;101279.16;;;18.24;51.83
70323;BME280;57735;56.264;43.898;2023-09-12T11:37:39;101285.06;;;18.42;51.09
70323;BME280;57735;56.264;43.898;2023-09-12T11:42:47;101286.66;;;18.52;50.59
70323;BME280;57735;56.264;43.898;2023-09-12T11:45:22;101289.72;;;18.48;49.66
70323;BME280;57735;56.264;43.898;2023-09-12T11:47:54;101288.03;;;18.47;50.29
70323;BME280;57735;56.264;43.898;2023-09-12T11:50:32;101285.53;;;18.46;49.22
70323;BME280;57735;56.264;43.898;2023-09-12T11:53:11;101285.44;;;18.39;48.70
70323;BME280;57735;56.264;43.898;2023-09-12T11:55:45;101282.75;;;18.39;49.53
70323;BME280;57735;56.264;43.898;2023-09-12T11:58:18;101276.50;;;18.39;49.30
70323;BME280;57735;56.264;43.898;2023-09-12T12:00:51;101281.06;;;18.38;50.08
70323;BME280;57735;56.264;43.898;2023-09-12T12:03:24;101275.53;;;18.32;49.08
70323;BME280;57735;56.264;43.898;2023-09-12T12:05:56;101278.06;;;18.33;48.66
70323;BME280;57735;56.264;43.898;2023-09-12T12:08:27;101279.72;;;18.34;49.59
70323;BME280;57735;56.264;43.898;2023-09-12T12:11:01;101276.31;;;18.40;50.08
70323;BME280;57735;56.264;43.898;2023-09-12T12:13:33;101274.28;;;18.42;49.83
70323;BME280;57735;56.264;43.898;2023-09-12T12:16:16;101282.28;;;18.51;48.48
70323;BME280;57735;56.264;43.898;2023-09-12T12:18:48;101270.75;;;18.57;48.56
70323;BME280;57735;56.264;43.898;2023-09-12T12:21:19;101280.13;;;18.69;49.08
70323;BME280;57735;56.264;43.898;2023-09-12T12:24:03;101275.09;;;18.80;48.72
70323;BME280;57735;56.264;43.898;2023-09-12T12:26:35;101281.06;;;18.91;49.17
70323;BME280;57735;56.264;43.898;2023-09-12T12:29:09;101275.84;;;18.89;47.55
70323;BME280;57735;56.264;43.898;2023-09-12T12:31:46;101277.16;;;18.93;47.46
70323;BME280;57735;56.264;43.898;2023-09-12T12:34:21;101281.63;;;19.01;47.73
70323;BME280;57735;56.264;43.898;2023-09-12T12:36:53;101270.97;;;19.14;47.95
70323;BME280;57735;56.264;43.898;2023-09-12T12:39:26;101277.13;;;19.23;46.60
70323;BME280;57735;56.264;43.898;2023-09-12T12:41:57;101269.91;;;19.44;46.54
70323;BME280;57735;56.264;43.898;2023-09-12T12:44:34;101266.66;;;19.85;46.20
70323;BME280;57735;56.264;43.898;2023-09-12T12:47:11;101274.53;;;20.23;45.95
70323;BME280;57735;56.264;43.898;2023-09-12T12:49:50;101265.59;;;20.29;45.75
70323;BME280;57735;56.264;43.898;2023-09-12T12:52:23;101268.25;;;20.22;45.54
70323;BME280;57735;56.264;43.898;2023-09-12T12:55:04;101282.00;;;20.20;45.96
70323;BME280;57735;56.264;43.898;2023-09-12T12:57:42;101281.94;;;20.14;46.24
70323;BME280;57735;56.264;43.898;2023-09-12T13:00:15;101279.34;;;19.84;46.78
70323;BME280;57735;56.264;43.898;2023-09-12T13:02:46;101283.00;;;19.56;46.93
70323;BME280;57735;56.264;43.898;2023-09-12T13:05:28;101280.75;;;19.30;46.70
70323;BME280;57735;56.264;43.898;2023-09-12T13:07:59;101279.69;;;19.09;48.36
70323;BME280;57735;56.264;43.898;2023-09-12T13:10:30;101290.94;;;18.83;48.71
70323;BME280;57735;56.264;43.898;2023-09-12T13:13:01;101291.34;;;18.58;50.38
70323;BME280;57735;56.264;43.898;2023-09-12T13:15:32;101289.44;;;18.43;50.04
70323;BME280;57735;56.264;43.898;2023-09-12T13:18:03;101294.91;;;18.35;50.38
70323;BME280;57735;56.264;43.898;2023-09-12T13:20:35;101292.47;;;18.26;50.91
70323;BME280;57735;56.264;43.898;2023-09-12T13:23:05;101292.53;;;18.18;51.16
70323;BME280;57735;56.264;43.898;2023-09-12T13:25:36;101296.78;;;18.12;50.61
70323;BME280;57735;56.264;43.898;2023-09-12T13:28:11;101283.00;;;18.07;51.52
70323;BME280;57735;56.264;43.898;2023-09-12T13:30:42;101288.75;;;18.04;51.57